sensor_id;sensor_type;location;lat;lon;timestamp;pressure;altitude;pressure_sealevel;temperature;humidity
70544;BME280;58097;48.364;-1.224;2023-03-26T00:01:21;98188.50;;;8.91;94.43
70544;BME280;58097;48.364;-1.224;2023-03-26T00:03:48;98173.41;;;8.87;94.26
70544;BME280;58097;48.364;-1.224;2023-03-26T00:06:20;98172.09;;;8.83;94.54
70544;BME280;58097;48.364;-1.224;2023-03-26T00:08:47;98177.78;;;8.82;95.37
70544;BME280;58097;48.364;-1.224;2023-03-26T00:11:15;98172.09;;;8.83;95.59
70544;BME280;58097;48.364;-1.224;2023-03-26T00:13:41;98175.31;;;8.87;96.73
70544;BME280;58097;48.364;-1.224;2023-03-26T00:16:11;98187.25;;;8.94;96.51
70544;BME280;58097;48.364;-1.224;2023-03-26T00:18:38;98196.47;;;9.01;96.83
70544;BME280;58097;48.364;-1.224;2023-03-26T00:21:05;98247.78;;;9.02;97.59
70544;BME280;58097;48.364;-1.224;2023-03-26T00:23:33;98266.50;;;9.07;98.04
70544;BME280;58097;48.364;-1.224;2023-03-26T00:25:59;98254.81;;;9.05;96.26
70544;BME280;58097;48.364;-1.224;2023-03-26T00:28:25;98282.38;;;9.05;94.50
70544;BME280;58097;48.364;-1.224;2023-03-26T00:31:12;98294.88;;;8.92;91.34
70544;BME280;58097;48.364;-1.224;2023-03-26T00:33:39;98307.72;;;8.85;89.98
70544;BME280;58097;48.364;-1.224;2023-03-26T00:36:07;98330.91;;;8.76;88.31
70544;BME280;58097;48.364;-1.224;2023-03-26T00:38:35;98340.25;;;8.67;88.49
70544;BME280;58097;48.364;-1.224;2023-03-26T00:41:04;98366.66;;;8.61;88.45
70544;BME280;58097;48.364;-1.224;2023-03-26T00:43:32;98383.72;;;8.57;88.35
70544;BME280;58097;48.364;-1.224;2023-03-26T00:45:58;98388.56;;;8.55;88.28
70544;BME280;58097;48.364;-1.224;2023-03-26T00:48:24;98398.34;;;8.57;88.55
70544;BME280;58097;48.364;-1.224;2023-03-26T00:50:51;98409.19;;;8.59;88.50
70544;BME280;58097;48.364;-1.224;2023-03-26T00:53:17;98422.75;;;8.60;88.74
70544;BME280;58097;48.364;-1.224;2023-03-26T00:55:45;98427.22;;;8.61;88.75
70544;BME280;58097;48.364;-1.224;2023-03-26T00:58:11;98433.97;;;8.59;89.02
70544;BME280;58097;48.364;-1.224;2023-03-26T01:00:42;98433.78;;;8.60;89.32
70544;BME280;58097;48.364;-1.224;2023-03-26T01:03:13;98442.22;;;8.59;89.63
70544;BME280;58097;48.364;-1.224;2023-03-26T01:05:47;98444.31;;;8.57;89.59
70544;BME280;58097;48.364;-1.224;2023-03-26T01:10:45;98456.06;;;8.51;90.09
70544;BME280;58097;48.364;-1.224;2023-03-26T01:13:20;98454.72;;;8.47;90.46
70544;BME280;58097;48.364;-1.224;2023-03-26T01:15:46;98462.13;;;8.46;91.03
70544;BME280;58097;48.364;-1.224;2023-03-26T01:18:24;98458.34;;;8.47;90.99
70544;BME280;58097;48.364;-1.224;2023-03-26T01:20:53;98461.56;;;8.51;90.88
70544;BME280;58097;48.364;-1.224;2023-03-26T01:23:26;98462.25;;;8.53;90.74
70544;BME280;58097;48.364;-1.224;2023-03-26T01:28:51;98472.41;;;8.52;89.91
70544;BME280;58097;48.364;-1.224;2023-03-26T01:31:29;98469.34;;;8.47;89.42
70544;BME280;58097;48.364;-1.224;2023-03-26T01:34:25;98485.75;;;8.41;88.49
70544;BME280;58097;48.364;-1.224;2023-03-26T01:37:28;98489.19;;;8.34;88.40
70544;BME280;58097;48.364;-1.224;2023-03-26T01:40:11;98490.94;;;8.27;88.90
70544;BME280;58097;48.364;-1.224;2023-03-26T01:42:47;98495.75;;;8.25;88.96
70544;BME280;58097;48.364;-1.224;2023-03-26T01:45:18;98499.38;;;8.26;89.38
70544;BME280;58097;48.364;-1.224;2023-03-26T01:47:45;98504.16;;;8.32;89.47
70544;BME280;58097;48.364;-1.224;2023-03-26T01:50:11;98505.72;;;8.34;89.51
70544;BME280;58097;48.364;-1.224;2023-03-26T01:52:37;98513.78;;;8.36;89.32
70544;BME280;58097;48.364;-1.224;2023-03-26T01:55:03;98511.22;;;8.34;88.77
70544;BME280;58097;48.364;-1.224;2023-03-26T01:58:02;98517.75;;;8.33;88.25
70544;BME280;58097;48.364;-1.224;2023-03-26T02:00:41;98518.63;;;8.26;88.38
70544;BME280;58097;48.364;-1.224;2023-03-26T02:05:51;98521.69;;;8.31;88.51
70544;BME280;58097;48.364;-1.224;2023-03-26T02:08:37;98516.56;;;8.28;88.50
70544;BME280;58097;48.364;-1.224;2023-03-26T02:11:08;98517.59;;;8.27;88.41
70544;BME280;58097;48.364;-1.224;2023-03-26T02:13:36;98510.69;;;8.31;88.49
70544;BME280;58097;48.364;-1.224;2023-03-26T02:16:06;98503.66;;;8.28;88.33
70544;BME280;58097;48.364;-1.224;2023-03-26T02:18:32;98515.69;;;8.27;88.35
70544;BME280;58097;48.364;-1.224;2023-03-26T02:21:14;98516.38;;;8.29;88.42
70544;BME280;58097;48.364;-1.224;2023-03-26T02:23:45;98513.81;;;8.28;88.46
70544;BME280;58097;48.364;-1.224;2023-03-26T02:26:12;98519.50;;;8.26;88.81
70544;BME280;58097;48.364;-1.224;2023-03-26T02:28:37;98518.09;;;8.30;88.63
70544;BME280;58097;48.364;-1.224;2023-03-26T02:31:04;98517.06;;;8.31;89.16
70544;BME280;58097;48.364;-1.224;2023-03-26T02:33:30;98508.63;;;8.33;88.84
70544;BME280;58097;48.364;-1.224;2023-03-26T02:35:57;98504.66;;;8.35;88.67
70544;BME280;58097;48.364;-1.224;2023-03-26T02:38:24;98506.03;;;8.31;88.78
70544;BME280;58097;48.364;-1.224;2023-03-26T02:40:52;98508.78;;;8.31;88.62
70544;BME280;58097;48.364;-1.224;2023-03-26T02:43:18;98511.53;;;8.31;88.65
70544;BME280;58097;48.364;-1.224;2023-03-26T02:45:43;98512.94;;;8.27;88.51
70544;BME280;58097;48.364;-1.224;2023-03-26T02:48:09;98519.50;;;8.26;88.43
70544;BME280;58097;48.364;-1.224;2023-03-26T02:50:34;98511.78;;;8.22;88.01
70544;BME280;58097;48.364;-1.224;2023-03-26T02:53:01;98504.06;;;8.17;88.30
70544;BME280;58097;48.364;-1.224;2023-03-26T02:55:27;98503.41;;;8.15;88.54
70544;BME280;58097;48.364;-1.224;2023-03-26T02:57:52;98513.38;;;8.16;88.78
70544;BME280;58097;48.364;-1.224;2023-03-26T03:00:18;98508.91;;;8.15;88.36
70544;BME280;58097;48.364;-1.224;2023-03-26T03:02:46;98514.03;;;8.18;88.42
70544;BME280;58097;48.364;-1.224;2023-03-26T03:05:14;98512.31;;;8.17;88.52
70544;BME280;58097;48.364;-1.224;2023-03-26T03:07:42;98515.94;;;8.18;88.34
70544;BME280;58097;48.364;-1.224;2023-03-26T03:10:11;98509.56;;;8.17;88.21
70544;BME280;58097;48.364;-1.224;2023-03-26T03:12:39;98505.66;;;8.12;87.87
70544;BME280;58097;48.364;-1.224;2023-03-26T03:15:05;98510.13;;;8.04;87.88
70544;BME280;58097;48.364;-1.224;2023-03-26T03:17:31;98496.38;;;8.04;88.19
70544;BME280;58097;48.364;-1.224;2023-03-26T03:19:56;98505.66;;;8.03;88.70
70544;BME280;58097;48.364;-1.224;2023-03-26T03:22:21;98505.66;;;8.03;88.72
70544;BME280;58097;48.364;-1.224;2023-03-26T03:24:47;98495.53;;;8.04;88.58
70544;BME280;58097;48.364;-1.224;2023-03-26T03:27:12;98497.91;;;8.07;88.63
70544;BME280;58097;48.364;-1.224;2023-03-26T03:29:37;98491.75;;;8.05;88.88
70544;BME280;58097;48.364;-1.224;2023-03-26T03:32:03;98489.84;;;8.05;88.88
70544;BME280;58097;48.364;-1.224;2023-03-26T03:34:29;98480.91;;;8.03;88.60
70544;BME280;58097;48.364;-1.224;2023-03-26T03:36:54;98485.91;;;8.00;88.19
70544;BME280;58097;48.364;-1.224;2023-03-26T03:39:19;98489.03;;;7.97;88.15
70544;BME280;58097;48.364;-1.224;2023-03-26T03:41:45;98478.41;;;7.94;87.59
70544;BME280;58097;48.364;-1.224;2023-03-26T03:44:10;98478.09;;;7.89;87.94
70544;BME280;58097;48.364;-1.224;2023-03-26T03:46:36;98487.19;;;7.89;88.12
70544;BME280;58097;48.364;-1.224;2023-03-26T03:49:01;98482.91;;;7.87;88.91
70544;BME280;58097;48.364;-1.224;2023-03-26T03:51:27;98476.91;;;7.83;89.19
70544;BME280;58097;48.364;-1.224;2023-03-26T03:53:52;98479.47;;;7.85;89.23
70544;BME280;58097;48.364;-1.224;2023-03-26T03:56:20;98478.25;;;7.87;89.15
70544;BME280;58097;48.364;-1.224;2023-03-26T03:58:48;98478.25;;;7.87;89.27
70544;BME280;58097;48.364;-1.224;2023-03-26T04:01:13;98477.53;;;7.93;88.91
70544;BME280;58097;48.364;-1.224;2023-03-26T04:03:39;98483.03;;;7.93;88.69
70544;BME280;58097;48.364;-1.224;2023-03-26T04:06:05;98460.53;;;7.90;88.71
70544;BME280;58097;48.364;-1.224;2023-03-26T04:08:31;98461.09;;;7.85;88.45
70544;BME280;58097;48.364;-1.224;2023-03-26T04:10:57;98460.75;;;7.80;88.59
70544;BME280;58097;48.364;-1.224;2023-03-26T04:13:23;98461.09;;;7.77;88.27
70544;BME280;58097;48.364;-1.224;2023-03-26T04:15:48;98453.03;;;7.75;88.71
70544;BME280;58097;48.364;-1.224;2023-03-26T04:18:14;98452.53;;;7.72;89.09
70544;BME280;58097;48.364;-1.224;2023-03-26T04:20:41;98448.22;;;7.77;89.42
70544;BME280;58097;48.364;-1.224;2023-03-26T04:23:16;98440.13;;;7.84;89.20
70544;BME280;58097;48.364;-1.224;2023-03-26T04:25:48;98438.91;;;7.87;89.51
70544;BME280;58097;48.364;-1.224;2023-03-26T04:28:24;98441.28;;;7.90;89.41
70544;BME280;58097;48.364;-1.224;2023-03-26T04:30:53;98441.97;;;7.92;89.58
70544;BME280;58097;48.364;-1.224;2023-03-26T04:33:19;98442.63;;;7.94;89.54
70544;BME280;58097;48.364;-1.224;2023-03-26T04:35:46;98452.91;;;8.00;89.22
70544;BME280;58097;48.364;-1.224;2023-03-26T04:38:13;98458.78;;;7.97;88.52
70544;BME280;58097;48.364;-1.224;2023-03-26T04:40:41;98458.84;;;7.89;88.77
70544;BME280;58097;48.364;-1.224;2023-03-26T04:43:16;98461.44;;;7.82;89.43
70544;BME280;58097;48.364;-1.224;2023-03-26T04:45:42;98464.53;;;7.79;89.77
70544;BME280;58097;48.364;-1.224;2023-03-26T04:48:10;98467.97;;;7.81;90.02
70544;BME280;58097;48.364;-1.224;2023-03-26T04:50:42;98461.09;;;7.85;89.97
70544;BME280;58097;48.364;-1.224;2023-03-26T04:53:10;98459.69;;;7.89;89.55
70544;BME280;58097;48.364;-1.224;2023-03-26T04:55:44;98461.22;;;7.92;89.09
70544;BME280;58097;48.364;-1.224;2023-03-26T04:58:12;98472.53;;;7.97;88.81
70544;BME280;58097;48.364;-1.224;2023-03-26T05:00:39;98462.56;;;7.96;88.22
70544;BME280;58097;48.364;-1.224;2023-03-26T05:03:04;98469.09;;;7.95;87.96
70544;BME280;58097;48.364;-1.224;2023-03-26T05:05:30;98465.19;;;7.89;87.71
70544;BME280;58097;48.364;-1.224;2023-03-26T05:07:55;98475.69;;;7.86;87.25
70544;BME280;58097;48.364;-1.224;2023-03-26T05:10:21;98467.13;;;7.81;87.07
70544;BME280;58097;48.364;-1.224;2023-03-26T05:12:47;98471.25;;;7.76;86.80
70544;BME280;58097;48.364;-1.224;2023-03-26T05:15:13;98467.44;;;7.77;86.90
70544;BME280;58097;48.364;-1.224;2023-03-26T05:17:39;98467.81;;;7.74;86.78
70544;BME280;58097;48.364;-1.224;2023-03-26T05:20:19;98471.25;;;7.76;87.15
70544;BME280;58097;48.364;-1.224;2023-03-26T05:22:44;98489.28;;;7.79;87.02
70544;BME280;58097;48.364;-1.224;2023-03-26T05:25:10;98480.16;;;7.78;87.59
70544;BME280;58097;48.364;-1.224;2023-03-26T05:27:35;98480.34;;;7.85;87.39
70544;BME280;58097;48.364;-1.224;2023-03-26T05:30:02;98480.84;;;7.89;87.48
70544;BME280;58097;48.364;-1.224;2023-03-26T05:32:29;98480.66;;;7.90;87.37
70544;BME280;58097;48.364;-1.224;2023-03-26T05:34:55;98484.25;;;7.91;87.51
70544;BME280;58097;48.364;-1.224;2023-03-26T05:37:20;98487.19;;;7.89;87.37
70544;BME280;58097;48.364;-1.224;2023-03-26T05:39:53;98481.19;;;7.86;87.16
70544;BME280;58097;48.364;-1.224;2023-03-26T05:42:19;98477.75;;;7.84;86.95
70544;BME280;58097;48.364;-1.224;2023-03-26T05:44:44;98483.63;;;7.81;87.00
70544;BME280;58097;48.364;-1.224;2023-03-26T05:47:10;98487.38;;;7.80;87.13
70544;BME280;58097;48.364;-1.224;2023-03-26T05:49:35;98484.47;;;7.81;87.42
70544;BME280;58097;48.364;-1.224;2023-03-26T05:52:00;98498.38;;;7.80;88.11
70544;BME280;58097;48.364;-1.224;2023-03-26T05:54:26;98500.13;;;7.81;88.10
70544;BME280;58097;48.364;-1.224;2023-03-26T05:56:51;98487.91;;;7.83;88.15
70544;BME280;58097;48.364;-1.224;2023-03-26T05:59:16;98496.84;;;7.85;88.12
70544;BME280;58097;48.364;-1.224;2023-03-26T06:01:42;98496.84;;;7.85;88.25
70544;BME280;58097;48.364;-1.224;2023-03-26T06:04:11;98498.72;;;7.85;88.46
70544;BME280;58097;48.364;-1.224;2023-03-26T06:06:36;98498.38;;;7.80;88.50
70544;BME280;58097;48.364;-1.224;2023-03-26T06:09:03;98508.19;;;7.74;88.00
70544;BME280;58097;48.364;-1.224;2023-03-26T06:11:29;98512.00;;;7.73;87.86
70544;BME280;58097;48.364;-1.224;2023-03-26T06:13:56;98508.56;;;7.71;87.57
70544;BME280;58097;48.364;-1.224;2023-03-26T06:16:21;98522.53;;;7.61;87.94
70544;BME280;58097;48.364;-1.224;2023-03-26T06:18:47;98517.19;;;7.60;88.54
70544;BME280;58097;48.364;-1.224;2023-03-26T06:21:14;98526.31;;;7.60;88.91
70544;BME280;58097;48.364;-1.224;2023-03-26T06:23:40;98527.84;;;7.63;88.73
70544;BME280;58097;48.364;-1.224;2023-03-26T06:26:05;98528.53;;;7.65;88.71
70544;BME280;58097;48.364;-1.224;2023-03-26T06:28:31;98536.59;;;7.66;88.11
70544;BME280;58097;48.364;-1.224;2023-03-26T06:30:58;98537.81;;;7.64;88.58
70544;BME280;58097;48.364;-1.224;2023-03-26T06:33:25;98540.19;;;7.67;88.46
70544;BME280;58097;48.364;-1.224;2023-03-26T06:35:51;98530.94;;;7.60;87.77
70544;BME280;58097;48.364;-1.224;2023-03-26T06:38:16;98529.94;;;7.53;87.50
70544;BME280;58097;48.364;-1.224;2023-03-26T06:40:42;98527.19;;;7.44;87.47
70544;BME280;58097;48.364;-1.224;2023-03-26T06:43:07;98524.78;;;7.41;87.66
70544;BME280;58097;48.364;-1.224;2023-03-26T06:45:33;98523.25;;;7.39;87.99
70544;BME280;58097;48.364;-1.224;2023-03-26T06:47:58;98531.50;;;7.39;88.61
70544;BME280;58097;48.364;-1.224;2023-03-26T06:50:25;98529.25;;;7.42;89.19
70544;BME280;58097;48.364;-1.224;2023-03-26T06:52:52;98531.13;;;7.50;89.43
70544;BME280;58097;48.364;-1.224;2023-03-26T06:55:18;98542.81;;;7.60;89.41
70544;BME280;58097;48.364;-1.224;2023-03-26T06:57:47;98536.06;;;7.71;89.53
70544;BME280;58097;48.364;-1.224;2023-03-26T07:00:13;98538.09;;;7.85;89.73
70544;BME280;58097;48.364;-1.224;2023-03-26T07:02:39;98532.69;;;8.00;89.92
70544;BME280;58097;48.364;-1.224;2023-03-26T07:05:04;98536.59;;;8.14;89.51
70544;BME280;58097;48.364;-1.224;2023-03-26T07:07:29;98534.22;;;8.11;88.12
70544;BME280;58097;48.364;-1.224;2023-03-26T07:09:56;98532.66;;;8.08;88.07
70544;BME280;58097;48.364;-1.224;2023-03-26T07:12:21;98536.78;;;8.04;88.41
70544;BME280;58097;48.364;-1.224;2023-03-26T07:14:47;98528.03;;;8.00;88.54
70544;BME280;58097;48.364;-1.224;2023-03-26T07:17:12;98531.47;;;8.02;89.09
70544;BME280;58097;48.364;-1.224;2023-03-26T07:19:37;98529.91;;;8.08;89.42
70544;BME280;58097;48.364;-1.224;2023-03-26T07:22:03;98532.63;;;8.16;89.29
70544;BME280;58097;48.364;-1.224;2023-03-26T07:24:29;98531.53;;;8.33;89.58
70544;BME280;58097;48.364;-1.224;2023-03-26T07:29:44;98541.94;;;8.77;89.16
70544;BME280;58097;48.364;-1.224;2023-03-26T07:37:46;98549.72;;;8.43;87.71
70544;BME280;58097;48.364;-1.224;2023-03-26T07:40:26;98550.09;;;8.31;88.17
70544;BME280;58097;48.364;-1.224;2023-03-26T07:45:43;98539.78;;;8.33;88.56
70544;BME280;58097;48.364;-1.224;2023-03-26T07:48:16;98539.22;;;8.38;89.05
70544;BME280;58097;48.364;-1.224;2023-03-26T07:50:43;98548.88;;;8.42;89.03
70544;BME280;58097;48.364;-1.224;2023-03-26T07:53:09;98545.56;;;8.47;88.94
70544;BME280;58097;48.364;-1.224;2023-03-26T08:06:53;98569.25;;;8.56;88.12
70544;BME280;58097;48.364;-1.224;2023-03-26T08:09:34;98568.56;;;8.54;88.38
70544;BME280;58097;48.364;-1.224;2023-03-26T08:15:17;98571.75;;;8.43;88.41
70544;BME280;58097;48.364;-1.224;2023-03-26T08:17:51;98573.47;;;8.35;88.25
70544;BME280;58097;48.364;-1.224;2023-03-26T08:23:22;98565.47;;;8.18;88.38
70544;BME280;58097;48.364;-1.224;2023-03-26T08:26:00;98580.63;;;8.14;88.20
70544;BME280;58097;48.364;-1.224;2023-03-26T08:28:36;98584.28;;;7.98;86.46
70544;BME280;58097;48.364;-1.224;2023-03-26T08:31:08;98574.88;;;7.84;86.72
70544;BME280;58097;48.364;-1.224;2023-03-26T08:33:35;98576.94;;;7.74;86.56
70544;BME280;58097;48.364;-1.224;2023-03-26T08:36:01;98561.38;;;7.58;86.40
70544;BME280;58097;48.364;-1.224;2023-03-26T08:38:26;98560.69;;;7.40;86.37
70544;BME280;58097;48.364;-1.224;2023-03-26T08:57:39;98554.69;;;7.53;85.70
70544;BME280;58097;48.364;-1.224;2023-03-26T09:03:06;98559.31;;;7.44;85.59
70544;BME280;58097;48.364;-1.224;2023-03-26T09:11:02;98549.94;;;7.86;87.93
70544;BME280;58097;48.364;-1.224;2023-03-26T09:14:13;98538.16;;;8.08;88.00
70544;BME280;58097;48.364;-1.224;2023-03-26T09:22:37;98539.97;;;8.24;86.79
70544;BME280;58097;48.364;-1.224;2023-03-26T09:25:20;98548.22;;;8.24;86.96
70544;BME280;58097;48.364;-1.224;2023-03-26T09:49:45;98537.50;;;8.45;85.71
70544;BME280;58097;48.364;-1.224;2023-03-26T10:08:39;98560.03;;;8.01;87.10
70544;BME280;58097;48.364;-1.224;2023-03-26T10:19:52;98562.31;;;7.90;87.29
70544;BME280;58097;48.364;-1.224;2023-03-26T10:22:38;98562.00;;;7.85;87.83
70544;BME280;58097;48.364;-1.224;2023-03-26T10:33:55;98562.19;;;8.22;89.08
70544;BME280;58097;48.364;-1.224;2023-03-26T10:36:33;98567.69;;;8.22;88.33
70544;BME280;58097;48.364;-1.224;2023-03-26T10:52:15;98594.38;;;8.14;88.30
70544;BME280;58097;48.364;-1.224;2023-03-26T10:54:55;98584.41;;;8.13;87.54
70544;BME280;58097;48.364;-1.224;2023-03-26T11:00:25;98590.72;;;8.21;88.97
70544;BME280;58097;48.364;-1.224;2023-03-26T11:08:49;98574.84;;;8.71;87.88
70544;BME280;58097;48.364;-1.224;2023-03-26T11:11:44;98571.19;;;9.01;88.15
70544;BME280;58097;48.364;-1.224;2023-03-26T11:15:01;98579.97;;;9.42;88.00
70544;BME280;58097;48.364;-1.224;2023-03-26T11:17:47;98582.31;;;9.83;86.68
70544;BME280;58097;48.364;-1.224;2023-03-26T11:20:39;98582.63;;;10.17;85.63
70544;BME280;58097;48.364;-1.224;2023-03-26T11:23:33;98586.66;;;10.44;84.92
70544;BME280;58097;48.364;-1.224;2023-03-26T11:26:07;98587.06;;;10.63;83.02
70544;BME280;58097;48.364;-1.224;2023-03-26T11:31:34;98602.31;;;10.73;82.65
70544;BME280;58097;48.364;-1.224;2023-03-26T11:34:26;98600.06;;;10.83;82.14
70544;BME280;58097;48.364;-1.224;2023-03-26T11:36:55;98607.84;;;10.95;83.04
70544;BME280;58097;48.364;-1.224;2023-03-26T11:39:26;98603.28;;;11.02;82.78
70544;BME280;58097;48.364;-1.224;2023-03-26T11:42:06;98605.66;;;11.05;82.14
70544;BME280;58097;48.364;-1.224;2023-03-26T11:44:38;98614.13;;;11.03;82.31
70544;BME280;58097;48.364;-1.224;2023-03-26T11:47:09;98612.44;;;11.02;81.89
70544;BME280;58097;48.364;-1.224;2023-03-26T11:49:37;98620.81;;;10.94;81.15
70544;BME280;58097;48.364;-1.224;2023-03-26T11:52:02;98618.84;;;10.88;80.91
70544;BME280;58097;48.364;-1.224;2023-03-26T11:54:28;98619.75;;;10.74;80.88
70544;BME280;58097;48.364;-1.224;2023-03-26T11:56:58;98629.47;;;10.70;81.22
70544;BME280;58097;48.364;-1.224;2023-03-26T12:04:36;98636.41;;;10.80;82.64
70544;BME280;58097;48.364;-1.224;2023-03-26T12:07:16;98640.09;;;10.88;82.81
70544;BME280;58097;48.364;-1.224;2023-03-26T12:09:51;98638.00;;;10.90;81.20
70544;BME280;58097;48.364;-1.224;2023-03-26T12:12:17;98634.28;;;10.82;80.82
70544;BME280;58097;48.364;-1.224;2023-03-26T12:14:43;98638.50;;;10.78;80.27
70544;BME280;58097;48.364;-1.224;2023-03-26T12:17:30;98639.91;;;10.89;81.98
70544;BME280;58097;48.364;-1.224;2023-03-26T12:19:56;98645.28;;;10.97;81.91
70544;BME280;58097;48.364;-1.224;2023-03-26T12:25:11;98641.59;;;11.26;81.76
70544;BME280;58097;48.364;-1.224;2023-03-26T12:27:42;98645.81;;;11.43;82.13
70544;BME280;58097;48.364;-1.224;2023-03-26T12:32:50;98646.00;;;11.85;81.41
70544;BME280;58097;48.364;-1.224;2023-03-26T12:35:27;98646.53;;;11.95;80.33
70544;BME280;58097;48.364;-1.224;2023-03-26T12:37:55;98652.06;;;11.95;79.79
70544;BME280;58097;48.364;-1.224;2023-03-26T12:40:37;98653.53;;;11.91;80.50
70544;BME280;58097;48.364;-1.224;2023-03-26T12:43:26;98647.78;;;11.92;79.57
70544;BME280;58097;48.364;-1.224;2023-03-26T12:45:54;98651.88;;;11.96;79.31
70544;BME280;58097;48.364;-1.224;2023-03-26T12:48:20;98652.13;;;12.01;80.28
70544;BME280;58097;48.364;-1.224;2023-03-26T12:59:40;98643.59;;;12.03;78.13
70544;BME280;58097;48.364;-1.224;2023-03-26T13:05:35;98642.53;;;12.32;78.99
70544;BME280;58097;48.364;-1.224;2023-03-26T13:11:13;98642.00;;;12.97;77.67
70544;BME280;58097;48.364;-1.224;2023-03-26T13:16:44;98651.53;;;13.29;75.71
70544;BME280;58097;48.364;-1.224;2023-03-26T13:19:52;98653.59;;;13.14;75.35
70544;BME280;58097;48.364;-1.224;2023-03-26T13:33:34;98673.91;;;12.39;76.80
70544;BME280;58097;48.364;-1.224;2023-03-26T13:46:50;98700.53;;;12.40;76.84
70544;BME280;58097;48.364;-1.224;2023-03-26T13:49:50;98703.69;;;12.30;76.78
70544;BME280;58097;48.364;-1.224;2023-03-26T13:52:23;98699.03;;;12.37;76.76
70544;BME280;58097;48.364;-1.224;2023-03-26T13:55:47;98694.66;;;12.50;77.21
70544;BME280;58097;48.364;-1.224;2023-03-26T14:03:22;98710.25;;;12.01;72.71
70544;BME280;58097;48.364;-1.224;2023-03-26T14:05:54;98723.00;;;11.96;70.43
70544;BME280;58097;48.364;-1.224;2023-03-26T14:08:35;98723.00;;;11.96;72.17
70544;BME280;58097;48.364;-1.224;2023-03-26T14:11:12;98725.50;;;11.91;71.67
70544;BME280;58097;48.364;-1.224;2023-03-26T14:13:47;98730.84;;;11.92;71.81
70544;BME280;58097;48.364;-1.224;2023-03-26T14:16:21;98723.91;;;12.03;71.95
70544;BME280;58097;48.364;-1.224;2023-03-26T14:24:52;98739.28;;;12.33;71.70
70544;BME280;58097;48.364;-1.224;2023-03-26T14:27:47;98747.75;;;12.53;69.80
70544;BME280;58097;48.364;-1.224;2023-03-26T14:30:21;98759.75;;;12.60;70.08
70544;BME280;58097;48.364;-1.224;2023-03-26T14:36:41;98773.59;;;12.32;70.50
70544;BME280;58097;48.364;-1.224;2023-03-26T14:39:09;98783.81;;;12.32;70.95
70544;BME280;58097;48.364;-1.224;2023-03-26T14:41:57;98785.56;;;12.39;70.61
70544;BME280;58097;48.364;-1.224;2023-03-26T14:47:20;98798.88;;;12.23;70.11
70544;BME280;58097;48.364;-1.224;2023-03-26T14:52:53;98803.47;;;11.94;71.44
70544;BME280;58097;48.364;-1.224;2023-03-26T14:58:01;98824.81;;;11.79;72.16
70544;BME280;58097;48.364;-1.224;2023-03-26T15:00:39;98821.66;;;11.67;73.69
70544;BME280;58097;48.364;-1.224;2023-03-26T15:33:02;98871.91;;;11.35;72.80
70544;BME280;58097;48.364;-1.224;2023-03-26T15:38:09;98891.47;;;11.33;74.33
70544;BME280;58097;48.364;-1.224;2023-03-26T15:41:43;98898.88;;;11.47;74.27
70544;BME280;58097;48.364;-1.224;2023-03-26T15:53:59;98924.63;;;11.92;73.63
70544;BME280;58097;48.364;-1.224;2023-03-26T16:02:29;98961.38;;;11.42;73.49
70544;BME280;58097;48.364;-1.224;2023-03-26T16:08:25;98979.34;;;11.08;74.29
70544;BME280;58097;48.364;-1.224;2023-03-26T16:10:43;98983.25;;;10.99;74.68
70544;BME280;58097;48.364;-1.224;2023-03-26T16:18:31;98995.88;;;10.94;75.17
70544;BME280;58097;48.364;-1.224;2023-03-26T16:26:19;99010.03;;;10.99;74.15
70544;BME280;58097;48.364;-1.224;2023-03-26T16:31:19;99043.25;;;10.91;72.98
70544;BME280;58097;48.364;-1.224;2023-03-26T16:33:55;99041.22;;;10.84;72.25
70544;BME280;58097;48.364;-1.224;2023-03-26T16:36:31;99049.13;;;10.88;72.69
70544;BME280;58097;48.364;-1.224;2023-03-26T16:52:59;99096.28;;;10.63;73.27
70544;BME280;58097;48.364;-1.224;2023-03-26T16:58:27;99123.22;;;10.61;75.94
70544;BME280;58097;48.364;-1.224;2023-03-26T17:01:19;99136.53;;;10.58;77.87
70544;BME280;58097;48.364;-1.224;2023-03-26T17:09:50;99146.09;;;10.39;79.81
70544;BME280;58097;48.364;-1.224;2023-03-26T17:12:33;99152.53;;;10.31;79.92
70544;BME280;58097;48.364;-1.224;2023-03-26T17:15:25;99167.75;;;10.19;80.74
70544;BME280;58097;48.364;-1.224;2023-03-26T17:26:28;99191.03;;;10.08;81.75
70544;BME280;58097;48.364;-1.224;2023-03-26T17:29:10;99192.06;;;10.07;83.18
70544;BME280;58097;48.364;-1.224;2023-03-26T17:32:02;99197.78;;;10.06;82.20
70544;BME280;58097;48.364;-1.224;2023-03-26T17:42:29;99215.91;;;9.92;81.90
70544;BME280;58097;48.364;-1.224;2023-03-26T17:45:16;99232.81;;;9.89;81.41
70544;BME280;58097;48.364;-1.224;2023-03-26T17:47:50;99234.41;;;9.83;81.41
70544;BME280;58097;48.364;-1.224;2023-03-26T17:50:21;99237.66;;;9.79;81.81
70544;BME280;58097;48.364;-1.224;2023-03-26T17:52:59;99253.00;;;9.73;81.40
70544;BME280;58097;48.364;-1.224;2023-03-26T17:55:30;99263.69;;;9.68;81.92
70544;BME280;58097;48.364;-1.224;2023-03-26T17:57:58;99261.28;;;9.65;82.04
70544;BME280;58097;48.364;-1.224;2023-03-26T18:00:45;99277.31;;;9.61;81.79
70544;BME280;58097;48.364;-1.224;2023-03-26T18:03:21;99275.75;;;9.59;82.44
70544;BME280;58097;48.364;-1.224;2023-03-26T18:05:51;99294.38;;;9.57;82.49
70544;BME280;58097;48.364;-1.224;2023-03-26T18:11:26;99298.34;;;9.54;83.79
70544;BME280;58097;48.364;-1.224;2023-03-26T18:16:43;99308.47;;;9.54;84.36
70544;BME280;58097;48.364;-1.224;2023-03-26T18:19:13;99313.31;;;9.52;84.01
70544;BME280;58097;48.364;-1.224;2023-03-26T18:21:50;99321.41;;;9.53;83.62
70544;BME280;58097;48.364;-1.224;2023-03-26T18:24:28;99333.31;;;9.54;83.87
70544;BME280;58097;48.364;-1.224;2023-03-26T18:26:58;99335.72;;;9.49;84.42
70544;BME280;58097;48.364;-1.224;2023-03-26T18:29:32;99342.25;;;9.48;83.80
70544;BME280;58097;48.364;-1.224;2023-03-26T18:32:02;99352.59;;;9.46;83.97
70544;BME280;58097;48.364;-1.224;2023-03-26T18:34:37;99361.56;;;9.48;83.02
70544;BME280;58097;48.364;-1.224;2023-03-26T18:39:32;99383.28;;;9.51;82.76
70544;BME280;58097;48.364;-1.224;2023-03-26T18:41:58;99382.78;;;9.47;82.91
70544;BME280;58097;48.364;-1.224;2023-03-26T18:44:26;99393.81;;;9.47;82.50
70544;BME280;58097;48.364;-1.224;2023-03-26T18:46:51;99408.09;;;9.43;82.60
70544;BME280;58097;48.364;-1.224;2023-03-26T18:49:21;99410.16;;;9.41;82.36
70544;BME280;58097;48.364;-1.224;2023-03-26T18:51:48;99420.81;;;9.36;82.08
70544;BME280;58097;48.364;-1.224;2023-03-26T18:54:17;99426.50;;;9.34;81.53